sensor_id;sensor_type;location;lat;lon;timestamp;P1;durP1;ratioP1;P2;durP2;ratioP2
32250;SDS011;41295;48.518;9.206;2023-04-24T00:00:15;1.77;;;0.60;;
32250;SDS011;41295;48.518;9.206;2023-04-24T00:02:19;2.53;;;0.60;;
32250;SDS011;41295;48.518;9.206;2023-04-24T00:04:22;2.05;;;0.98;;
32250;SDS011;41295;48.518;9.206;2023-04-24T00:06:27;1.52;;;0.70;;
32250;SDS011;41295;48.518;9.206;2023-04-24T00:08:34;1.65;;;0.73;;
32250;SDS011;41295;48.518;9.206;2023-04-24T00:10:38;2.00;;;0.80;;
32250;SDS011;41295;48.518;9.206;2023-04-24T00:12:41;2.22;;;0.88;;
32250;SDS011;41295;48.518;9.206;2023-04-24T00:14:43;1.75;;;0.70;;
32250;SDS011;41295;48.518;9.206;2023-04-24T00:16:46;1.17;;;0.82;;
32250;SDS011;41295;48.518;9.206;2023-04-24T00:18:48;0.98;;;0.70;;
32250;SDS011;41295;48.518;9.206;2023-04-24T00:20:53;2.17;;;0.75;;
32250;SDS011;41295;48.518;9.206;2023-04-24T00:22:56;2.85;;;1.20;;
32250;SDS011;41295;48.518;9.206;2023-04-24T00:24:58;1.70;;;0.73;;
32250;SDS011;41295;48.518;9.206;2023-04-24T00:27:02;2.63;;;0.90;;
32250;SDS011;41295;48.518;9.206;2023-04-24T00:29:05;3.83;;;0.95;;
32250;SDS011;41295;48.518;9.206;2023-04-24T00:31:08;3.47;;;0.90;;
32250;SDS011;41295;48.518;9.206;2023-04-24T00:33:10;2.15;;;0.90;;
32250;SDS011;41295;48.518;9.206;2023-04-24T00:35:13;1.58;;;0.98;;
32250;SDS011;41295;48.518;9.206;2023-04-24T00:37:16;0.95;;;0.80;;
32250;SDS011;41295;48.518;9.206;2023-04-24T00:39:18;2.05;;;0.88;;
32250;SDS011;41295;48.518;9.206;2023-04-24T00:41:21;4.50;;;1.17;;
32250;SDS011;41295;48.518;9.206;2023-04-24T00:43:25;2.10;;;1.20;;
32250;SDS011;41295;48.518;9.206;2023-04-24T00:45:28;0.80;;;0.80;;
32250;SDS011;41295;48.518;9.206;2023-04-24T00:47:32;1.70;;;0.75;;
32250;SDS011;41295;48.518;9.206;2023-04-24T00:49:35;2.42;;;0.80;;
32250;SDS011;41295;48.518;9.206;2023-04-24T00:51:38;2.35;;;0.80;;
32250;SDS011;41295;48.518;9.206;2023-04-24T00:53:41;2.55;;;0.80;;
32250;SDS011;41295;48.518;9.206;2023-04-24T00:55:44;0.93;;;0.80;;
32250;SDS011;41295;48.518;9.206;2023-04-24T00:57:47;1.77;;;0.50;;
32250;SDS011;41295;48.518;9.206;2023-04-24T00:59:52;1.85;;;0.75;;
32250;SDS011;41295;48.518;9.206;2023-04-24T01:01:55;3.72;;;1.00;;
32250;SDS011;41295;48.518;9.206;2023-04-24T01:03:58;0.98;;;0.63;;
32250;SDS011;41295;48.518;9.206;2023-04-24T01:06:01;3.78;;;0.95;;
32250;SDS011;41295;48.518;9.206;2023-04-24T01:08:05;1.13;;;0.80;;
32250;SDS011;41295;48.518;9.206;2023-04-24T01:10:09;3.33;;;0.75;;
32250;SDS011;41295;48.518;9.206;2023-04-24T01:12:12;1.65;;;0.70;;
32250;SDS011;41295;48.518;9.206;2023-04-24T01:14:14;5.70;;;1.00;;
32250;SDS011;41295;48.518;9.206;2023-04-24T01:16:18;3.45;;;0.88;;
32250;SDS011;41295;48.518;9.206;2023-04-24T01:18:22;1.45;;;0.90;;
32250;SDS011;41295;48.518;9.206;2023-04-24T01:20:25;4.25;;;0.95;;
32250;SDS011;41295;48.518;9.206;2023-04-24T01:22:29;2.33;;;0.80;;
32250;SDS011;41295;48.518;9.206;2023-04-24T01:24:32;2.10;;;0.85;;
32250;SDS011;41295;48.518;9.206;2023-04-24T01:26:34;2.15;;;0.80;;
32250;SDS011;41295;48.518;9.206;2023-04-24T01:28:37;2.92;;;0.90;;
32250;SDS011;41295;48.518;9.206;2023-04-24T01:30:40;1.67;;;0.57;;
32250;SDS011;41295;48.518;9.206;2023-04-24T01:32:43;1.70;;;0.73;;
32250;SDS011;41295;48.518;9.206;2023-04-24T01:34:48;1.42;;;0.90;;
32250;SDS011;41295;48.518;9.206;2023-04-24T01:36:50;2.17;;;0.80;;
32250;SDS011;41295;48.518;9.206;2023-04-24T01:38:54;1.40;;;0.77;;
32250;SDS011;41295;48.518;9.206;2023-04-24T01:40:57;5.10;;;1.10;;
32250;SDS011;41295;48.518;9.206;2023-04-24T01:43:00;3.03;;;1.10;;
32250;SDS011;41295;48.518;9.206;2023-04-24T01:45:04;1.63;;;0.80;;
32250;SDS011;41295;48.518;9.206;2023-04-24T01:47:07;1.85;;;0.98;;
32250;SDS011;41295;48.518;9.206;2023-04-24T01:49:10;2.08;;;0.88;;
32250;SDS011;41295;48.518;9.206;2023-04-24T01:51:13;2.40;;;0.80;;
32250;SDS011;41295;48.518;9.206;2023-04-24T01:53:15;3.47;;;0.70;;
32250;SDS011;41295;48.518;9.206;2023-04-24T01:55:19;0.80;;;0.80;;
32250;SDS011;41295;48.518;9.206;2023-04-24T01:57:22;4.53;;;1.00;;
32250;SDS011;41295;48.518;9.206;2023-04-24T01:59:25;1.52;;;0.80;;
32250;SDS011;41295;48.518;9.206;2023-04-24T02:01:33;3.40;;;1.40;;
32250;SDS011;41295;48.518;9.206;2023-04-24T02:03:37;1.02;;;0.80;;
32250;SDS011;41295;48.518;9.206;2023-04-24T02:05:39;2.72;;;0.90;;
32250;SDS011;41295;48.518;9.206;2023-04-24T02:07:42;1.90;;;0.80;;
32250;SDS011;41295;48.518;9.206;2023-04-24T02:09:47;2.78;;;0.88;;
32250;SDS011;41295;48.518;9.206;2023-04-24T02:11:51;3.72;;;0.90;;
32250;SDS011;41295;48.518;9.206;2023-04-24T02:13:54;0.90;;;0.77;;
32250;SDS011;41295;48.518;9.206;2023-04-24T02:15:57;1.17;;;0.80;;
32250;SDS011;41295;48.518;9.206;2023-04-24T02:18:00;2.05;;;0.90;;
32250;SDS011;41295;48.518;9.206;2023-04-24T02:20:03;1.10;;;0.82;;
32250;SDS011;41295;48.518;9.206;2023-04-24T02:22:06;2.05;;;1.08;;
32250;SDS011;41295;48.518;9.206;2023-04-24T02:24:09;1.70;;;0.90;;
32250;SDS011;41295;48.518;9.206;2023-04-24T02:26:12;2.83;;;1.00;;
32250;SDS011;41295;48.518;9.206;2023-04-24T02:28:15;1.38;;;1.27;;
32250;SDS011;41295;48.518;9.206;2023-04-24T02:30:18;3.85;;;0.90;;
32250;SDS011;41295;48.518;9.206;2023-04-24T02:32:21;3.95;;;1.20;;
32250;SDS011;41295;48.518;9.206;2023-04-24T02:34:23;1.02;;;0.90;;
32250;SDS011;41295;48.518;9.206;2023-04-24T02:36:26;3.67;;;0.93;;
32250;SDS011;41295;48.518;9.206;2023-04-24T02:38:29;3.28;;;0.60;;
32250;SDS011;41295;48.518;9.206;2023-04-24T02:40:31;3.53;;;1.15;;
32250;SDS011;41295;48.518;9.206;2023-04-24T02:42:34;1.95;;;0.90;;
32250;SDS011;41295;48.518;9.206;2023-04-24T02:44:38;1.90;;;0.80;;
32250;SDS011;41295;48.518;9.206;2023-04-24T02:46:41;6.95;;;1.10;;
32250;SDS011;41295;48.518;9.206;2023-04-24T02:48:43;1.70;;;0.90;;
32250;SDS011;41295;48.518;9.206;2023-04-24T02:50:49;1.35;;;0.80;;
32250;SDS011;41295;48.518;9.206;2023-04-24T02:52:52;3.13;;;0.90;;
32250;SDS011;41295;48.518;9.206;2023-04-24T02:54:55;1.48;;;0.98;;
32250;SDS011;41295;48.518;9.206;2023-04-24T02:56:57;2.17;;;1.10;;
32250;SDS011;41295;48.518;9.206;2023-04-24T02:59:00;1.60;;;1.20;;
32250;SDS011;41295;48.518;9.206;2023-04-24T03:01:04;2.28;;;1.40;;
32250;SDS011;41295;48.518;9.206;2023-04-24T03:03:07;5.32;;;1.33;;
32250;SDS011;41295;48.518;9.206;2023-04-24T03:05:10;5.18;;;1.60;;
32250;SDS011;41295;48.518;9.206;2023-04-24T03:07:13;2.55;;;1.20;;
32250;SDS011;41295;48.518;9.206;2023-04-24T03:09:16;2.75;;;1.40;;
32250;SDS011;41295;48.518;9.206;2023-04-24T03:11:18;1.77;;;1.10;;
32250;SDS011;41295;48.518;9.206;2023-04-24T03:13:21;2.60;;;0.85;;
32250;SDS011;41295;48.518;9.206;2023-04-24T03:15:24;5.97;;;1.20;;
32250;SDS011;41295;48.518;9.206;2023-04-24T03:17:28;4.10;;;2.03;;
32250;SDS011;41295;48.518;9.206;2023-04-24T03:19:30;3.30;;;1.00;;
32250;SDS011;41295;48.518;9.206;2023-04-24T03:21:33;2.83;;;1.08;;
32250;SDS011;41295;48.518;9.206;2023-04-24T03:23:36;1.55;;;0.95;;
32250;SDS011;41295;48.518;9.206;2023-04-24T03:25:39;2.42;;;1.10;;
32250;SDS011;41295;48.518;9.206;2023-04-24T03:27:41;2.63;;;1.20;;
32250;SDS011;41295;48.518;9.206;2023-04-24T03:29:44;2.60;;;1.23;;
32250;SDS011;41295;48.518;9.206;2023-04-24T03:31:47;3.10;;;1.15;;
32250;SDS011;41295;48.518;9.206;2023-04-24T03:33:51;1.65;;;1.13;;
32250;SDS011;41295;48.518;9.206;2023-04-24T03:35:53;5.35;;;1.52;;
32250;SDS011;41295;48.518;9.206;2023-04-24T03:37:56;3.25;;;1.20;;
32250;SDS011;41295;48.518;9.206;2023-04-24T03:39:58;2.22;;;1.10;;
32250;SDS011;41295;48.518;9.206;2023-04-24T03:42:01;1.52;;;0.85;;
32250;SDS011;41295;48.518;9.206;2023-04-24T03:44:04;1.25;;;1.00;;
32250;SDS011;41295;48.518;9.206;2023-04-24T03:46:06;3.10;;;1.10;;
32250;SDS011;41295;48.518;9.206;2023-04-24T03:48:10;5.78;;;1.17;;
32250;SDS011;41295;48.518;9.206;2023-04-24T03:50:14;2.63;;;1.20;;
32250;SDS011;41295;48.518;9.206;2023-04-24T03:52:17;4.38;;;1.30;;
32250;SDS011;41295;48.518;9.206;2023-04-24T03:54:19;2.35;;;1.35;;
32250;SDS011;41295;48.518;9.206;2023-04-24T03:56:22;3.53;;;1.20;;
32250;SDS011;41295;48.518;9.206;2023-04-24T03:58:24;5.80;;;1.30;;
32250;SDS011;41295;48.518;9.206;2023-04-24T04:00:27;2.10;;;1.17;;
32250;SDS011;41295;48.518;9.206;2023-04-24T04:02:29;4.20;;;1.00;;
32250;SDS011;41295;48.518;9.206;2023-04-24T04:04:32;3.13;;;0.90;;
32250;SDS011;41295;48.518;9.206;2023-04-24T04:06:36;2.25;;;1.10;;
32250;SDS011;41295;48.518;9.206;2023-04-24T04:08:39;2.38;;;1.30;;
32250;SDS011;41295;48.518;9.206;2023-04-24T04:10:41;4.07;;;1.10;;
32250;SDS011;41295;48.518;9.206;2023-04-24T04:12:44;2.70;;;1.05;;
32250;SDS011;41295;48.518;9.206;2023-04-24T04:14:47;5.57;;;1.08;;
32250;SDS011;41295;48.518;9.206;2023-04-24T04:16:49;3.88;;;1.27;;
32250;SDS011;41295;48.518;9.206;2023-04-24T04:18:55;8.77;;;1.10;;
32250;SDS011;41295;48.518;9.206;2023-04-24T04:20:57;2.63;;;1.00;;
32250;SDS011;41295;48.518;9.206;2023-04-24T04:23:03;1.83;;;1.20;;
32250;SDS011;41295;48.518;9.206;2023-04-24T04:25:06;5.07;;;1.90;;
32250;SDS011;41295;48.518;9.206;2023-04-24T04:27:09;3.42;;;1.23;;
32250;SDS011;41295;48.518;9.206;2023-04-24T04:29:12;3.35;;;1.30;;
32250;SDS011;41295;48.518;9.206;2023-04-24T04:31:16;2.22;;;1.10;;
32250;SDS011;41295;48.518;9.206;2023-04-24T04:33:19;6.07;;;0.98;;
32250;SDS011;41295;48.518;9.206;2023-04-24T04:35:21;5.20;;;1.17;;
32250;SDS011;41295;48.518;9.206;2023-04-24T04:37:24;4.32;;;1.10;;
32250;SDS011;41295;48.518;9.206;2023-04-24T04:39:28;2.78;;;0.90;;
32250;SDS011;41295;48.518;9.206;2023-04-24T04:41:31;1.95;;;1.17;;
32250;SDS011;41295;48.518;9.206;2023-04-24T04:43:36;4.40;;;1.25;;
32250;SDS011;41295;48.518;9.206;2023-04-24T04:45:40;1.63;;;1.10;;
32250;SDS011;41295;48.518;9.206;2023-04-24T04:47:44;4.72;;;1.20;;
32250;SDS011;41295;48.518;9.206;2023-04-24T04:49:46;4.63;;;1.23;;
32250;SDS011;41295;48.518;9.206;2023-04-24T04:51:50;6.13;;;1.52;;
32250;SDS011;41295;48.518;9.206;2023-04-24T04:53:53;3.65;;;1.23;;
32250;SDS011;41295;48.518;9.206;2023-04-24T04:55:57;6.10;;;1.25;;
32250;SDS011;41295;48.518;9.206;2023-04-24T04:58:00;4.15;;;1.52;;
32250;SDS011;41295;48.518;9.206;2023-04-24T05:00:03;3.58;;;1.10;;
32250;SDS011;41295;48.518;9.206;2023-04-24T05:02:08;4.68;;;1.70;;
32250;SDS011;41295;48.518;9.206;2023-04-24T05:04:10;4.50;;;0.95;;
32250;SDS011;41295;48.518;9.206;2023-04-24T05:06:13;2.03;;;0.90;;
32250;SDS011;41295;48.518;9.206;2023-04-24T05:08:16;6.63;;;1.60;;
32250;SDS011;41295;48.518;9.206;2023-04-24T05:10:27;1.10;;;0.68;;
32250;SDS011;41295;48.518;9.206;2023-04-24T05:12:33;1.27;;;0.73;;
32250;SDS011;41295;48.518;9.206;2023-04-24T05:14:35;3.97;;;0.95;;
32250;SDS011;41295;48.518;9.206;2023-04-24T05:16:38;3.30;;;0.88;;
32250;SDS011;41295;48.518;9.206;2023-04-24T05:18:41;2.67;;;1.10;;
32250;SDS011;41295;48.518;9.206;2023-04-24T05:20:43;3.22;;;0.93;;
32250;SDS011;41295;48.518;9.206;2023-04-24T05:22:46;4.25;;;1.20;;
32250;SDS011;41295;48.518;9.206;2023-04-24T05:24:48;5.28;;;1.20;;
32250;SDS011;41295;48.518;9.206;2023-04-24T05:26:51;3.78;;;1.50;;
32250;SDS011;41295;48.518;9.206;2023-04-24T05:28:55;2.42;;;1.40;;
32250;SDS011;41295;48.518;9.206;2023-04-24T05:30:59;5.72;;;1.70;;
32250;SDS011;41295;48.518;9.206;2023-04-24T05:33:02;2.63;;;1.23;;
32250;SDS011;41295;48.518;9.206;2023-04-24T05:35:05;1.98;;;1.35;;
32250;SDS011;41295;48.518;9.206;2023-04-24T05:37:08;4.93;;;1.30;;
32250;SDS011;41295;48.518;9.206;2023-04-24T05:39:11;1.40;;;1.17;;
32250;SDS011;41295;48.518;9.206;2023-04-24T05:41:13;4.43;;;1.40;;
32250;SDS011;41295;48.518;9.206;2023-04-24T05:43:16;4.63;;;1.58;;
32250;SDS011;41295;48.518;9.206;2023-04-24T05:45:20;5.25;;;1.70;;
32250;SDS011;41295;48.518;9.206;2023-04-24T05:47:22;2.45;;;1.60;;
32250;SDS011;41295;48.518;9.206;2023-04-24T05:49:25;3.63;;;1.63;;
32250;SDS011;41295;48.518;9.206;2023-04-24T05:51:27;6.53;;;1.48;;
32250;SDS011;41295;48.518;9.206;2023-04-24T05:53:32;4.65;;;1.70;;
32250;SDS011;41295;48.518;9.206;2023-04-24T05:55:35;3.53;;;1.55;;
32250;SDS011;41295;48.518;9.206;2023-04-24T05:57:38;3.85;;;1.55;;
32250;SDS011;41295;48.518;9.206;2023-04-24T05:59:40;2.90;;;1.55;;
32250;SDS011;41295;48.518;9.206;2023-04-24T06:01:45;3.47;;;1.70;;
32250;SDS011;41295;48.518;9.206;2023-04-24T06:03:48;2.72;;;1.70;;
32250;SDS011;41295;48.518;9.206;2023-04-24T06:05:50;2.60;;;1.73;;
32250;SDS011;41295;48.518;9.206;2023-04-24T06:07:53;5.70;;;1.80;;
32250;SDS011;41295;48.518;9.206;2023-04-24T06:09:56;2.85;;;1.65;;
32250;SDS011;41295;48.518;9.206;2023-04-24T06:11:58;4.28;;;1.60;;
32250;SDS011;41295;48.518;9.206;2023-04-24T06:14:01;2.40;;;1.60;;
32250;SDS011;41295;48.518;9.206;2023-04-24T06:16:04;2.70;;;1.67;;
32250;SDS011;41295;48.518;9.206;2023-04-24T06:18:08;5.00;;;2.05;;
32250;SDS011;41295;48.518;9.206;2023-04-24T06:20:12;2.75;;;1.48;;
32250;SDS011;41295;48.518;9.206;2023-04-24T06:22:14;2.58;;;1.70;;
32250;SDS011;41295;48.518;9.206;2023-04-24T06:24:17;2.25;;;1.60;;
32250;SDS011;41295;48.518;9.206;2023-04-24T06:26:20;2.72;;;1.80;;
32250;SDS011;41295;48.518;9.206;2023-04-24T06:28:23;4.18;;;1.73;;
32250;SDS011;41295;48.518;9.206;2023-04-24T06:30:25;3.72;;;1.70;;
32250;SDS011;41295;48.518;9.206;2023-04-24T06:32:29;3.13;;;1.60;;
32250;SDS011;41295;48.518;9.206;2023-04-24T06:34:33;2.40;;;1.42;;
32250;SDS011;41295;48.518;9.206;2023-04-24T06:36:36;3.38;;;1.60;;
32250;SDS011;41295;48.518;9.206;2023-04-24T06:38:39;2.72;;;1.70;;
32250;SDS011;41295;48.518;9.206;2023-04-24T06:40:42;5.03;;;1.90;;
32250;SDS011;41295;48.518;9.206;2023-04-24T06:42:44;5.13;;;1.85;;
32250;SDS011;41295;48.518;9.206;2023-04-24T06:44:47;2.28;;;1.83;;
32250;SDS011;41295;48.518;9.206;2023-04-24T06:46:49;1.95;;;1.52;;
32250;SDS011;41295;48.518;9.206;2023-04-24T06:48:52;3.88;;;2.08;;
32250;SDS011;41295;48.518;9.206;2023-04-24T06:50:58;7.15;;;1.70;;
32250;SDS011;41295;48.518;9.206;2023-04-24T06:53:00;2.67;;;1.55;;
32250;SDS011;41295;48.518;9.206;2023-04-24T06:55:03;4.93;;;1.70;;
32250;SDS011;41295;48.518;9.206;2023-04-24T06:57:06;2.40;;;1.70;;
32250;SDS011;41295;48.518;9.206;2023-04-24T06:59:11;3.47;;;1.70;;
32250;SDS011;41295;48.518;9.206;2023-04-24T07:01:14;3.17;;;1.98;;
32250;SDS011;41295;48.518;9.206;2023-04-24T07:03:16;2.35;;;1.70;;
32250;SDS011;41295;48.518;9.206;2023-04-24T07:05:19;1.70;;;1.40;;
32250;SDS011;41295;48.518;9.206;2023-04-24T07:07:23;2.75;;;1.80;;
32250;SDS011;41295;48.518;9.206;2023-04-24T07:09:26;4.75;;;1.88;;
32250;SDS011;41295;48.518;9.206;2023-04-24T07:11:29;3.60;;;2.05;;
32250;SDS011;41295;48.518;9.206;2023-04-24T07:13:31;4.25;;;2.15;;
32250;SDS011;41295;48.518;9.206;2023-04-24T07:15:36;4.00;;;1.88;;
32250;SDS011;41295;48.518;9.206;2023-04-24T07:17:39;4.78;;;1.88;;
32250;SDS011;41295;48.518;9.206;2023-04-24T07:19:44;1.83;;;1.63;;
32250;SDS011;41295;48.518;9.206;2023-04-24T07:21:47;2.50;;;2.00;;
32250;SDS011;41295;48.518;9.206;2023-04-24T07:23:51;3.72;;;1.98;;
32250;SDS011;41295;48.518;9.206;2023-04-24T07:25:53;4.85;;;1.83;;
32250;SDS011;41295;48.518;9.206;2023-04-24T07:27:56;4.78;;;2.30;;
32250;SDS011;41295;48.518;9.206;2023-04-24T07:29:59;3.92;;;1.73;;
32250;SDS011;41295;48.518;9.206;2023-04-24T07:32:02;3.22;;;1.90;;
32250;SDS011;41295;48.518;9.206;2023-04-24T07:34:05;2.55;;;1.55;;
32250;SDS011;41295;48.518;9.206;2023-04-24T07:36:07;2.65;;;1.40;;
32250;SDS011;41295;48.518;9.206;2023-04-24T07:38:16;2.70;;;1.50;;
32250;SDS011;41295;48.518;9.206;2023-04-24T07:40:22;2.67;;;1.52;;
32250;SDS011;41295;48.518;9.206;2023-04-24T07:42:25;2.63;;;1.40;;
32250;SDS011;41295;48.518;9.206;2023-04-24T07:44:28;2.15;;;1.50;;
32250;SDS011;41295;48.518;9.206;2023-04-24T07:46:30;2.83;;;1.90;;
32250;SDS011;41295;48.518;9.206;2023-04-24T07:48:33;3.50;;;1.50;;
32250;SDS011;41295;48.518;9.206;2023-04-24T07:50:36;2.40;;;1.50;;
32250;SDS011;41295;48.518;9.206;2023-04-24T07:52:38;3.60;;;1.60;;
32250;SDS011;41295;48.518;9.206;2023-04-24T07:54:41;3.80;;;1.50;;
32250;SDS011;41295;48.518;9.206;2023-04-24T07:56:48;3.50;;;1.65;;
32250;SDS011;41295;48.518;9.206;2023-04-24T07:58:50;2.70;;;1.58;;
32250;SDS011;41295;48.518;9.206;2023-04-24T08:00:53;1.50;;;1.40;;
32250;SDS011;41295;48.518;9.206;2023-04-24T08:02:56;2.35;;;1.50;;
32250;SDS011;41295;48.518;9.206;2023-04-24T08:04:58;4.05;;;2.00;;
32250;SDS011;41295;48.518;9.206;2023-04-24T08:07:01;5.28;;;1.80;;
32250;SDS011;41295;48.518;9.206;2023-04-24T08:09:04;2.70;;;1.48;;
32250;SDS011;41295;48.518;9.206;2023-04-24T08:11:06;1.88;;;1.50;;
32250;SDS011;41295;48.518;9.206;2023-04-24T08:13:10;2.72;;;1.40;;
32250;SDS011;41295;48.518;9.206;2023-04-24T08:15:13;3.80;;;1.60;;
32250;SDS011;41295;48.518;9.206;2023-04-24T08:17:16;5.63;;;1.85;;
32250;SDS011;41295;48.518;9.206;2023-04-24T08:19:18;3.17;;;1.50;;
32250;SDS011;41295;48.518;9.206;2023-04-24T08:21:21;2.38;;;1.58;;
32250;SDS011;41295;48.518;9.206;2023-04-24T08:23:24;7.00;;;1.83;;
32250;SDS011;41295;48.518;9.206;2023-04-24T08:25:26;4.07;;;1.50;;
32250;SDS011;41295;48.518;9.206;2023-04-24T08:27:29;3.80;;;1.50;;
32250;SDS011;41295;48.518;9.206;2023-04-24T08:29:33;4.25;;;1.58;;
32250;SDS011;41295;48.518;9.206;2023-04-24T08:31:36;4.70;;;1.80;;
32250;SDS011;41295;48.518;9.206;2023-04-24T08:33:38;3.50;;;1.83;;
32250;SDS011;41295;48.518;9.206;2023-04-24T08:35:42;6.47;;;1.70;;
32250;SDS011;41295;48.518;9.206;2023-04-24T08:37:44;2.83;;;1.45;;
32250;SDS011;41295;48.518;9.206;2023-04-24T08:39:47;4.57;;;1.88;;
32250;SDS011;41295;48.518;9.206;2023-04-24T08:41:49;2.92;;;2.03;;
32250;SDS011;41295;48.518;9.206;2023-04-24T08:43:54;6.38;;;1.70;;
32250;SDS011;41295;48.518;9.206;2023-04-24T08:46:00;3.83;;;1.83;;
32250;SDS011;41295;48.518;9.206;2023-04-24T08:48:08;3.53;;;1.60;;
32250;SDS011;41295;48.518;9.206;2023-04-24T08:50:30;5.78;;;1.90;;
32250;SDS011;41295;48.518;9.206;2023-04-24T08:52:34;3.58;;;1.63;;
32250;SDS011;41295;48.518;9.206;2023-04-24T08:54:37;4.82;;;1.63;;
32250;SDS011;41295;48.518;9.206;2023-04-24T08:56:41;5.38;;;1.52;;
32250;SDS011;41295;48.518;9.206;2023-04-24T08:58:46;3.95;;;1.42;;
32250;SDS011;41295;48.518;9.206;2023-04-24T09:00:50;5.25;;;1.77;;
32250;SDS011;41295;48.518;9.206;2023-04-24T09:02:54;7.65;;;1.63;;
32250;SDS011;41295;48.518;9.206;2023-04-24T09:04:58;3.17;;;1.80;;
32250;SDS011;41295;48.518;9.206;2023-04-24T09:07:01;5.75;;;2.13;;
32250;SDS011;41295;48.518;9.206;2023-04-24T09:09:04;3.45;;;1.60;;
32250;SDS011;41295;48.518;9.206;2023-04-24T09:11:07;3.55;;;1.85;;
32250;SDS011;41295;48.518;9.206;2023-04-24T09:13:11;4.18;;;1.58;;
32250;SDS011;41295;48.518;9.206;2023-04-24T09:15:13;6.75;;;1.67;;
32250;SDS011;41295;48.518;9.206;2023-04-24T09:17:16;5.43;;;1.40;;
32250;SDS011;41295;48.518;9.206;2023-04-24T09:19:20;2.47;;;1.40;;
32250;SDS011;41295;48.518;9.206;2023-04-24T09:21:23;2.63;;;1.50;;
32250;SDS011;41295;48.518;9.206;2023-04-24T09:23:26;5.45;;;1.75;;
32250;SDS011;41295;48.518;9.206;2023-04-24T09:25:31;8.48;;;1.67;;
32250;SDS011;41295;48.518;9.206;2023-04-24T09:27:34;2.10;;;1.52;;
32250;SDS011;41295;48.518;9.206;2023-04-24T09:29:37;6.97;;;1.55;;
32250;SDS011;41295;48.518;9.206;2023-04-24T09:31:40;3.60;;;1.63;;
32250;SDS011;41295;48.518;9.206;2023-04-24T09:33:47;4.20;;;1.63;;
32250;SDS011;41295;48.518;9.206;2023-04-24T09:35:57;5.15;;;2.33;;
32250;SDS011;41295;48.518;9.206;2023-04-24T09:38:00;2.28;;;1.50;;
32250;SDS011;41295;48.518;9.206;2023-04-24T09:40:10;2.78;;;1.77;;
32250;SDS011;41295;48.518;9.206;2023-04-24T09:42:13;2.83;;;1.70;;
32250;SDS011;41295;48.518;9.206;2023-04-24T09:44:16;6.70;;;1.65;;
32250;SDS011;41295;48.518;9.206;2023-04-24T09:46:28;5.75;;;2.00;;
32250;SDS011;41295;48.518;9.206;2023-04-24T09:48:33;1.65;;;1.50;;
32250;SDS011;41295;48.518;9.206;2023-04-24T09:50:37;2.70;;;1.60;;
32250;SDS011;41295;48.518;9.206;2023-04-24T09:52:41;3.28;;;1.40;;
32250;SDS011;41295;48.518;9.206;2023-04-24T09:54:47;2.53;;;1.50;;
32250;SDS011;41295;48.518;9.206;2023-04-24T09:56:55;3.53;;;1.40;;
32250;SDS011;41295;48.518;9.206;2023-04-24T09:59:03;3.15;;;1.63;;
32250;SDS011;41295;48.518;9.206;2023-04-24T10:01:07;4.22;;;1.77;;
32250;SDS011;41295;48.518;9.206;2023-04-24T10:03:10;4.60;;;1.83;;
32250;SDS011;41295;48.518;9.206;2023-04-24T10:05:13;5.88;;;2.00;;
32250;SDS011;41295;48.518;9.206;2023-04-24T10:07:15;6.03;;;1.60;;
32250;SDS011;41295;48.518;9.206;2023-04-24T10:09:20;3.03;;;1.70;;
32250;SDS011;41295;48.518;9.206;2023-04-24T10:11:24;4.05;;;2.03;;
32250;SDS011;41295;48.518;9.206;2023-04-24T10:13:28;2.95;;;1.55;;
32250;SDS011;41295;48.518;9.206;2023-04-24T10:15:31;5.32;;;1.58;;
32250;SDS011;41295;48.518;9.206;2023-04-24T10:17:34;2.30;;;1.83;;
32250;SDS011;41295;48.518;9.206;2023-04-24T10:19:37;7.70;;;1.50;;
32250;SDS011;41295;48.518;9.206;2023-04-24T10:21:43;3.20;;;1.80;;
32250;SDS011;41295;48.518;9.206;2023-04-24T10:23:47;4.57;;;1.60;;
32250;SDS011;41295;48.518;9.206;2023-04-24T10:25:52;6.15;;;1.70;;
32250;SDS011;41295;48.518;9.206;2023-04-24T10:27:57;1.95;;;1.75;;
32250;SDS011;41295;48.518;9.206;2023-04-24T10:30:01;2.22;;;1.48;;
32250;SDS011;41295;48.518;9.206;2023-04-24T10:32:06;2.50;;;1.35;;
32250;SDS011;41295;48.518;9.206;2023-04-24T10:34:10;3.70;;;1.73;;
32250;SDS011;41295;48.518;9.206;2023-04-24T10:36:13;8.57;;;1.58;;
32250;SDS011;41295;48.518;9.206;2023-04-24T10:38:18;3.03;;;1.02;;
32250;SDS011;41295;48.518;9.206;2023-04-24T10:40:27;2.72;;;1.25;;
32250;SDS011;41295;48.518;9.206;2023-04-24T10:42:34;4.45;;;1.10;;
32250;SDS011;41295;48.518;9.206;2023-04-24T10:44:37;2.53;;;1.00;;
32250;SDS011;41295;48.518;9.206;2023-04-24T10:46:42;5.25;;;1.20;;
32250;SDS011;41295;48.518;9.206;2023-04-24T10:48:51;1.48;;;1.15;;
32250;SDS011;41295;48.518;9.206;2023-04-24T10:50:55;2.10;;;1.13;;
32250;SDS011;41295;48.518;9.206;2023-04-24T10:53:05;3.40;;;1.30;;
32250;SDS011;41295;48.518;9.206;2023-04-24T10:55:08;2.07;;;1.23;;
32250;SDS011;41295;48.518;9.206;2023-04-24T10:57:26;2.78;;;1.40;;
32250;SDS011;41295;48.518;9.206;2023-04-24T10:59:35;2.53;;;1.23;;
32250;SDS011;41295;48.518;9.206;2023-04-24T11:01:38;2.33;;;1.10;;
32250;SDS011;41295;48.518;9.206;2023-04-24T11:03:41;2.05;;;1.48;;
32250;SDS011;41295;48.518;9.206;2023-04-24T11:05:57;2.40;;;1.33;;
32250;SDS011;41295;48.518;9.206;2023-04-24T11:08:10;6.88;;;1.55;;
32250;SDS011;41295;48.518;9.206;2023-04-24T11:10:24;4.07;;;1.17;;
32250;SDS011;41295;48.518;9.206;2023-04-24T11:12:27;3.90;;;1.25;;
32250;SDS011;41295;48.518;9.206;2023-04-24T11:14:30;3.88;;;1.33;;
32250;SDS011;41295;48.518;9.206;2023-04-24T11:16:54;1.73;;;1.10;;
32250;SDS011;41295;48.518;9.206;2023-04-24T11:19:00;2.47;;;1.33;;
32250;SDS011;41295;48.518;9.206;2023-04-24T11:21:09;3.13;;;1.30;;
32250;SDS011;41295;48.518;9.206;2023-04-24T11:23:13;2.30;;;1.20;;
32250;SDS011;41295;48.518;9.206;2023-04-24T11:25:16;1.88;;;1.08;;
32250;SDS011;41295;48.518;9.206;2023-04-24T11:27:19;3.22;;;1.50;;
32250;SDS011;41295;48.518;9.206;2023-04-24T11:29:22;4.13;;;1.30;;
32250;SDS011;41295;48.518;9.206;2023-04-24T11:31:40;3.00;;;1.15;;
32250;SDS011;41295;48.518;9.206;2023-04-24T11:33:44;1.52;;;1.08;;
32250;SDS011;41295;48.518;9.206;2023-04-24T11:35:47;2.15;;;1.10;;
32250;SDS011;41295;48.518;9.206;2023-04-24T11:37:50;2.30;;;1.13;;
32250;SDS011;41295;48.518;9.206;2023-04-24T11:40:15;1.20;;;1.00;;
32250;SDS011;41295;48.518;9.206;2023-04-24T11:42:18;1.67;;;1.10;;
32250;SDS011;41295;48.518;9.206;2023-04-24T11:44:23;3.92;;;1.17;;
32250;SDS011;41295;48.518;9.206;2023-04-24T11:46:27;3.20;;;1.20;;
32250;SDS011;41295;48.518;9.206;2023-04-24T11:48:33;1.63;;;1.00;;
32250;SDS011;41295;48.518;9.206;2023-04-24T11:50:38;2.70;;;1.33;;
32250;SDS011;41295;48.518;9.206;2023-04-24T11:52:41;7.70;;;1.48;;
32250;SDS011;41295;48.518;9.206;2023-04-24T11:54:49;8.77;;;1.13;;
32250;SDS011;41295;48.518;9.206;2023-04-24T11:56:52;3.42;;;1.40;;
32250;SDS011;41295;48.518;9.206;2023-04-24T11:58:58;2.33;;;1.00;;
32250;SDS011;41295;48.518;9.206;2023-04-24T12:01:00;2.00;;;1.20;;
32250;SDS011;41295;48.518;9.206;2023-04-24T12:03:06;1.67;;;0.98;;
32250;SDS011;41295;48.518;9.206;2023-04-24T12:05:17;1.33;;;1.10;;
32250;SDS011;41295;48.518;9.206;2023-04-24T12:07:23;1.67;;;1.30;;
32250;SDS011;41295;48.518;9.206;2023-04-24T12:09:26;1.88;;;1.20;;
32250;SDS011;41295;48.518;9.206;2023-04-24T12:11:29;3.28;;;0.90;;
32250;SDS011;41295;48.518;9.206;2023-04-24T12:13:31;3.75;;;1.23;;
32250;SDS011;41295;48.518;9.206;2023-04-24T12:15:34;3.45;;;1.17;;
32250;SDS011;41295;48.518;9.206;2023-04-24T12:17:36;3.25;;;1.73;;
32250;SDS011;41295;48.518;9.206;2023-04-24T12:19:47;2.33;;;0.90;;
32250;SDS011;41295;48.518;9.206;2023-04-24T12:22:00;2.67;;;1.00;;
32250;SDS011;41295;48.518;9.206;2023-04-24T12:24:06;2.67;;;1.23;;
32250;SDS011;41295;48.518;9.206;2023-04-24T12:26:09;1.90;;;1.27;;